Time;durP1;ratioP1;P1;durP2;ratioP2;P2;SDS_P1;SDS_P2;PMS_P1;PMS_P2;Temp;Humidity;BMP_temperature;BMP_pressure;BME280_temperature;BME280_humidity;BME280_pressure;Samples;Min_cycle;Max_cycle;Signal;HPM_P1;HPM_P2
2024/01/18 00:00:51;;;;;;;24.00;12.87;;;;;;;-0.79;97.17;99223.63;5009237;28;20054;-65
2024/01/18 00:03:16;;;;;;;19.83;12.00;;;;;;;-0.73;97.03;99230.34;5010103;28;20022;-65
2024/01/18 00:05:41;;;;;;;21.57;13.10;;;;;;;-0.75;97.13;99237.41;5011172;28;20060;-65
2024/01/18 00:08:07;;;;;;;20.67;12.87;;;;;;;-0.81;97.35;99229.84;5011634;28;20040;-65
2024/01/18 00:10:32;;;;;;;25.47;13.93;;;;;;;-0.80;97.14;99234.97;5010665;28;20064;-65
2024/01/18 00:12:57;;;;;;;20.00;13.17;;;;;;;-0.78;97.14;99254.03;5010527;28;20022;-65
2024/01/18 00:15:24;;;;;;;23.03;13.27;;;;;;;-0.79;97.18;99252.34;5010967;28;20022;-65
2024/01/18 00:17:52;;;;;;;24.10;14.27;;;;;;;-0.85;97.80;99238.69;5011269;28;20030;-65
2024/01/18 00:20:18;;;;;;;21.67;12.67;;;;;;;-0.78;97.71;99258.41;5010887;28;20504;-65
2024/01/18 00:22:43;;;;;;;22.47;14.27;;;;;;;-0.77;97.60;99271.38;5009564;28;20076;-65
2024/01/18 00:25:09;;;;;;;21.90;14.40;;;;;;;-0.77;97.88;99273.16;5011356;28;20034;-65
2024/01/18 00:27:35;;;;;;;20.30;14.30;;;;;;;-0.78;97.57;99266.25;5010186;28;20026;-65
2024/01/18 00:30:00;;;;;;;19.50;13.40;;;;;;;-0.85;97.44;99254.34;5009044;28;20128;-65
2024/01/18 00:32:25;;;;;;;20.90;15.17;;;;;;;-0.74;97.86;99270.41;5008595;28;20392;-65
2024/01/18 00:34:51;;;;;;;21.10;12.97;;;;;;;-0.77;97.88;99258.31;5009299;28;20080;-65
2024/01/18 00:37:16;;;;;;;25.97;13.27;;;;;;;-0.75;97.95;99266.94;5009592;28;20420;-65
2024/01/18 00:39:42;;;;;;;18.03;13.33;;;;;;;-0.80;97.60;99258.47;5010304;28;20030;-65
2024/01/18 00:42:08;;;;;;;22.67;13.53;;;;;;;-0.72;98.26;99271.19;5009778;28;20030;-65
2024/01/18 00:44:34;;;;;;;17.50;12.77;;;;;;;-0.73;97.82;99280.78;5011900;28;20435;-65
2024/01/18 00:46:59;;;;;;;25.53;13.87;;;;;;;-0.78;97.97;99263.63;5010531;28;20091;-65
2024/01/18 00:49:25;;;;;;;22.50;13.30;;;;;;;-0.72;98.20;99276.41;5004237;28;20105;-65
2024/01/18 00:51:50;;;;;;;21.20;13.77;;;;;;;-0.74;97.82;99281.69;5003656;28;20050;-65
2024/01/18 00:54:18;;;;;;;26.83;13.90;;;;;;;-0.78;97.95;99279.28;5003562;28;20033;-65
2024/01/18 00:56:43;;;;;;;22.10;13.13;;;;;;;-0.79;98.11;99285.44;4998833;28;20027;-65
2024/01/18 00:59:09;;;;;;;25.33;13.53;;;;;;;-0.77;98.40;99294.03;5001714;28;20044;-65
2024/01/18 01:01:34;;;;;;;23.43;14.20;;;;;;;-0.76;98.65;99299.19;5012342;28;20051;-65
2024/01/18 01:04:00;;;;;;;23.57;13.93;;;;;;;-0.78;98.19;99290.56;5014173;28;20850;-65
2024/01/18 01:06:25;;;;;;;27.30;14.20;;;;;;;-0.77;98.67;99296.63;5014072;28;20084;-65
2024/01/18 01:08:53;;;;;;;23.90;14.10;;;;;;;-0.79;98.62;99291.50;5011441;28;20153;-65
2024/01/18 01:11:19;;;;;;;23.50;13.60;;;;;;;-0.85;99.21;99291.75;5011541;28;20026;-65
2024/01/18 01:13:45;;;;;;;25.13;12.17;;;;;;;-0.88;98.63;99278.84;5012872;28;20025;-65
2024/01/18 01:16:11;;;;;;;23.43;14.83;;;;;;;-0.80;98.37;99300.22;5013792;28;20030;-65
2024/01/18 01:18:37;;;;;;;24.63;14.87;;;;;;;-0.81;99.28;99298.53;5012141;28;20041;-65
2024/01/18 01:21:03;;;;;;;23.37;13.67;;;;;;;-0.81;99.32;99301.13;5013739;28;20420;-65
2024/01/18 01:23:29;;;;;;;19.63;13.63;;;;;;;-0.82;99.29;99303.81;5013158;28;20041;-65
2024/01/18 01:25:55;;;;;;;20.03;13.63;;;;;;;-0.83;98.55;99308.19;5012812;28;20022;-65
2024/01/18 01:28:21;;;;;;;26.20;14.63;;;;;;;-0.87;99.35;99301.41;5013633;28;20608;-65
2024/01/18 01:30:46;;;;;;;20.73;14.20;;;;;;;-0.84;99.43;99309.09;5013157;28;20042;-66
2024/01/18 01:33:11;;;;;;;25.23;15.03;;;;;;;-0.86;99.14;99317.91;5013766;28;20033;-65
2024/01/18 01:35:39;;;;;;;20.43;13.07;;;;;;;-0.85;99.52;99319.59;5012473;28;20018;-65
2024/01/18 01:38:04;;;;;;;19.57;13.30;;;;;;;-0.86;98.92;99323.97;5012194;28;20022;-65
2024/01/18 01:40:32;;;;;;;22.13;13.80;;;;;;;-0.88;99.46;99330.16;5012233;28;20125;-65
2024/01/18 01:42:57;;;;;;;20.67;13.10;;;;;;;-0.97;99.25;99326.16;5013217;28;20022;-65
2024/01/18 01:45:23;;;;;;;21.53;13.80;;;;;;;-0.90;99.07;99332.00;5011770;28;20504;-65
2024/01/18 01:47:49;;;;;;;20.80;13.63;;;;;;;-1.46;99.27;99248.13;5013450;28;20033;-65
2024/01/18 01:50:14;;;;;;;19.03;13.57;;;;;;;-1.00;99.42;99323.66;5013694;28;20018;-65
2024/01/18 01:52:42;;;;;;;21.03;14.17;;;;;;;-0.94;99.03;99339.09;5013203;28;20079;-65
2024/01/18 01:55:12;;;;;;;21.73;14.00;;;;;;;-0.97;99.79;99340.06;5010976;28;20109;-65
2024/01/18 01:57:39;;;;;;;17.63;13.33;;;;;;;-0.98;99.87;99338.34;5010825;28;20022;-65
2024/01/18 02:00:07;;;;;;;24.20;14.77;;;;;;;-0.98;99.38;99334.91;5011639;28;20033;-65
2024/01/18 02:02:39;;;;;;;25.40;14.73;;;;;;;-1.02;99.72;99338.56;5012583;28;20018;-65
2024/01/18 02:05:07;;;;;;;23.47;14.40;;;;;;;-1.10;99.85;99330.19;5009275;28;20033;-65
2024/01/18 02:07:36;;;;;;;21.13;14.00;;;;;;;-1.01;100.00;99340.25;5012709;28;20057;-65
2024/01/18 02:10:02;;;;;;;18.97;14.33;;;;;;;-1.02;100.00;99339.41;5011449;28;20026;-65
2024/01/18 02:12:29;;;;;;;31.70;14.33;;;;;;;-1.01;100.00;99337.63;5011262;28;20022;-65
2024/01/18 02:14:54;;;;;;;28.40;15.87;;;;;;;-1.06;100.00;99327.41;5012788;28;20017;-65
2024/01/18 02:17:20;;;;;;;21.50;14.60;;;;;;;-1.05;100.00;99336.91;5010625;28;20049;-65
2024/01/18 02:19:45;;;;;;;21.73;13.53;;;;;;;-1.05;100.00;99342.13;5012856;28;20037;-65
2024/01/18 02:22:14;;;;;;;26.17;15.03;;;;;;;-1.04;100.00;99329.94;5009408;28;20084;-65
2024/01/18 02:24:50;;;;;;;24.27;13.53;;;;;;;-1.03;100.00;99336.84;5012617;28;20469;-65
2024/01/18 02:27:16;;;;;;;24.47;14.40;;;;;;;-1.13;100.00;99319.88;5009801;28;20071;-65
2024/01/18 02:29:41;;;;;;;20.80;13.43;;;;;;;-1.03;100.00;99337.72;5012628;28;20026;-65
2024/01/18 02:32:06;;;;;;;19.97;13.97;;;;;;;-1.03;100.00;99331.63;5011098;28;20060;-65
2024/01/18 02:34:38;;;;;;;17.73;13.77;;;;;;;-1.14;100.00;99324.25;5014592;28;20480;-65
2024/01/18 02:37:05;;;;;;;21.00;13.87;;;;;;;-1.02;100.00;99342.00;5012414;28;20040;-65
2024/01/18 02:39:32;;;;;;;22.73;13.53;;;;;;;-1.03;100.00;99347.28;5012200;28;20026;-65
2024/01/18 02:42:00;;;;;;;19.57;13.93;;;;;;;-1.09;100.00;99343.16;5011904;28;20030;-65
2024/01/18 02:44:26;;;;;;;21.70;14.00;;;;;;;-1.06;100.00;99339.56;5012533;28;20484;-65
2024/01/18 02:46:52;;;;;;;20.90;13.67;;;;;;;-1.10;100.00;99330.19;5007713;28;20465;-66
2024/01/18 02:49:17;;;;;;;25.83;13.87;;;;;;;-1.06;100.00;99350.00;4999874;28;20109;-65
2024/01/18 02:51:44;;;;;;;28.73;14.50;;;;;;;-1.08;100.00;99352.69;5002393;28;20022;-65
2024/01/18 02:54:09;;;;;;;22.40;14.63;;;;;;;-1.19;100.00;99334.84;5004340;28;20108;-65
2024/01/18 02:56:35;;;;;;;24.73;15.70;;;;;;;-1.07;100.00;99353.53;5001320;28;20053;-65
2024/01/18 02:59:00;;;;;;;18.20;13.03;;;;;;;-1.09;100.00;99350.13;5001870;28;20405;-65
2024/01/18 03:01:26;;;;;;;19.20;13.80;;;;;;;-1.07;100.00;99349.16;5003676;28;20034;-65
2024/01/18 03:03:51;;;;;;;28.13;15.27;;;;;;;-1.12;100.00;99351.09;5001008;28;20032;-66
2024/01/18 03:06:17;;;;;;;20.63;14.30;;;;;;;-1.04;100.00;99374.28;5002719;28;20525;-65
2024/01/18 03:08:42;;;;;;;22.70;14.47;;;;;;;-1.05;100.00;99368.22;5000767;28;20073;-65
2024/01/18 03:11:07;;;;;;;22.97;14.13;;;;;;;-1.11;100.00;99349.38;5010668;28;20025;-65
2024/01/18 03:13:35;;;;;;;26.67;14.50;;;;;;;-1.04;100.00;99358.63;4993972;28;20045;-65
2024/01/18 03:16:05;;;;;;;26.27;14.93;;;;;;;-1.08;100.00;99354.47;5007655;28;20448;-65
2024/01/18 03:18:34;;;;;;;22.63;14.40;;;;;;;-1.03;100.00;99362.94;5010346;28;20030;-65
2024/01/18 03:20:59;;;;;;;24.40;13.80;;;;;;;-1.08;100.00;99370.09;5011242;28;20109;-65
2024/01/18 03:23:25;;;;;;;20.90;13.23;;;;;;;-1.09;100.00;99368.38;5010735;28;20128;-65
2024/01/18 03:25:50;;;;;;;25.80;13.77;;;;;;;-1.05;100.00;99375.19;5010886;28;20033;-65
2024/01/18 03:28:15;;;;;;;23.70;14.53;;;;;;;-1.05;100.00;99372.59;5007442;28;20026;-65
2024/01/18 03:30:41;;;;;;;20.87;12.93;;;;;;;-1.08;100.00;99375.31;4997303;28;20024;-65
2024/01/18 03:33:06;;;;;;;24.50;13.47;;;;;;;-1.08;100.00;99370.94;5007478;28;20066;-65
2024/01/18 03:35:31;;;;;;;25.80;13.93;;;;;;;-1.09;100.00;99373.59;5012656;28;20081;-65
2024/01/18 03:37:57;;;;;;;21.60;13.70;;;;;;;-1.10;100.00;99375.38;5010591;28;20057;-65
2024/01/18 03:40:22;;;;;;;23.00;14.60;;;;;;;-1.12;100.00;99368.50;5010725;28;20543;-65
2024/01/18 03:42:48;;;;;;;23.47;14.23;;;;;;;-1.13;100.00;99366.81;5011256;28;20061;-66
2024/01/18 03:45:15;;;;;;;25.20;14.90;;;;;;;-1.14;100.00;99381.63;5009677;28;20025;-66
2024/01/18 03:47:43;;;;;;;20.77;14.47;;;;;;;-1.12;100.00;99384.16;5010734;28;20036;-65
2024/01/18 03:50:08;;;;;;;19.73;13.73;;;;;;;-1.15;100.00;99383.41;5010514;28;20029;-65
2024/01/18 03:52:34;;;;;;;22.30;14.10;;;;;;;-1.20;100.00;99376.66;5010772;28;20556;-65
2024/01/18 03:54:59;;;;;;;22.33;14.43;;;;;;;-1.16;100.00;99399.09;5011250;28;20374;-65
2024/01/18 03:57:25;;;;;;;25.07;14.17;;;;;;;-1.17;100.00;99400.84;5009161;28;20026;-65
2024/01/18 03:59:50;;;;;;;19.50;13.80;;;;;;;-1.18;100.00;99406.13;5009223;28;20037;-65
2024/01/18 04:02:18;;;;;;;21.07;13.33;;;;;;;-1.22;100.00;99401.94;5009668;28;20063;-65
2024/01/18 04:04:46;;;;;;;18.57;12.83;;;;;;;-1.26;100.00;99400.38;5008076;28;20112;-67
2024/01/18 04:07:11;;;;;;;21.93;13.27;;;;;;;-1.27;100.00;99403.84;5009362;28;20469;-65
2024/01/18 04:09:36;;;;;;;21.27;13.27;;;;;;;-1.28;100.00;99405.63;5009749;28;20079;-65
2024/01/18 04:12:02;;;;;;;19.87;13.23;;;;;;;-1.31;100.00;99404.91;5010442;28;20034;-65
2024/01/18 04:14:28;;;;;;;18.90;13.47;;;;;;;-1.34;100.00;99408.47;5010469;28;20481;-65
2024/01/18 04:16:58;;;;;;;22.20;13.47;;;;;;;-1.43;100.00;99398.38;5009033;28;20038;-65
2024/01/18 04:19:23;;;;;;;19.27;13.35;;;;;;;-1.49;100.00;99393.41;5000287;28;20681;-65
2024/01/18 04:21:49;;;;;;;24.97;12.60;;;;;;;-1.44;100.00;99410.56;5005529;28;20116;-65
2024/01/18 04:24:14;;;;;;;21.23;13.40;;;;;;;-1.53;100.00;99405.72;5003889;28;20045;-65
2024/01/18 04:26:42;;;;;;;20.33;12.17;;;;;;;-1.48;100.00;99413.34;5003026;28;20025;-65
2024/01/18 04:29:07;;;;;;;19.17;12.97;;;;;;;-1.51;100.00;99414.31;5007929;28;20030;-65
2024/01/18 04:31:33;;;;;;;20.83;12.27;;;;;;;-1.56;100.00;99418.81;5013252;28;20076;-65
2024/01/18 04:33:59;;;;;;;23.60;13.13;;;;;;;-1.56;100.00;99415.38;5004921;28;20026;-65
2024/01/18 04:36:24;;;;;;;21.83;13.60;;;;;;;-1.56;100.00;99421.44;5005447;28;20040;-65
2024/01/18 04:38:50;;;;;;;19.10;12.97;;;;;;;-1.56;100.00;99418.81;5005358;28;20021;-65
2024/01/18 04:41:15;;;;;;;22.90;13.27;;;;;;;-1.53;100.00;99430.91;5003050;28;20030;-65
2024/01/18 04:43:41;;;;;;;20.37;11.90;;;;;;;-1.61;100.00;99428.59;5003873;28;20117;-65
2024/01/18 04:46:09;;;;;;;22.07;13.30;;;;;;;-1.58;100.00;99451.94;5005725;28;20026;-65
2024/01/18 04:48:36;;;;;;;20.00;12.33;;;;;;;-1.67;100.00;99441.84;5005821;28;20022;-65
2024/01/18 04:51:02;;;;;;;22.80;13.10;;;;;;;-1.72;100.00;99441.16;5002238;28;20061;-65
2024/01/18 04:53:28;;;;;;;20.20;12.43;;;;;;;-1.69;100.00;99448.88;5001716;28;20022;-65
2024/01/18 04:55:54;;;;;;;21.20;12.37;;;;;;;-1.75;100.00;99446.47;5004606;28;20022;-65
2024/01/18 04:58:19;;;;;;;20.13;11.60;;;;;;;-1.83;100.00;99449.34;5006607;28;20029;-65
2024/01/18 05:00:47;;;;;;;21.83;13.47;;;;;;;-1.76;100.00;99470.84;5013962;28;20162;-65
2024/01/18 05:03:12;;;;;;;23.30;13.47;;;;;;;-1.86;100.00;99462.47;5013327;28;20037;-65
2024/01/18 05:05:38;;;;;;;23.73;13.10;;;;;;;-1.89;100.00;99468.63;5013304;28;20076;-65
2024/01/18 05:08:03;;;;;;;22.87;12.83;;;;;;;-1.89;100.00;99471.25;5013869;28;20113;-65
2024/01/18 05:10:28;;;;;;;18.93;12.43;;;;;;;-1.88;100.00;99479.94;5013126;28;20584;-65
2024/01/18 05:12:54;;;;;;;17.90;12.77;;;;;;;-1.92;100.00;99480.94;5013538;28;20054;-65
2024/01/18 05:15:19;;;;;;;17.87;12.87;;;;;;;-2.01;100.00;99465.63;5012911;28;20087;-65
2024/01/18 05:17:46;;;;;;;21.57;12.47;;;;;;;-2.05;100.00;99467.47;5011958;28;20025;-65
2024/01/18 05:20:12;;;;;;;21.33;12.43;;;;;;;-2.01;100.00;99476.88;5012889;28;20034;-65
2024/01/18 05:22:38;;;;;;;24.13;12.23;;;;;;;-2.04;100.00;99473.53;5012107;28;20116;-65
2024/01/18 05:25:05;;;;;;;18.13;11.97;;;;;;;-2.09;100.00;99479.75;5011907;28;20484;-65
2024/01/18 05:27:30;;;;;;;21.87;12.13;;;;;;;-2.18;100.00;99472.22;5012592;28;20448;-65
2024/01/18 05:29:57;;;;;;;17.70;13.27;;;;;;;-2.16;100.00;99483.47;5012443;28;20119;-65
2024/01/18 05:32:25;;;;;;;19.87;12.43;;;;;;;-2.17;100.00;99492.19;5011015;28;20466;-66
2024/01/18 05:34:51;;;;;;;17.60;12.50;;;;;;;-2.21;100.00;99487.94;5012134;28;20547;-65
2024/01/18 05:37:18;;;;;;;21.23;12.87;;;;;;;-2.25;100.00;99494.19;5011755;28;20121;-65
2024/01/18 05:39:44;;;;;;;20.83;12.60;;;;;;;-2.36;100.00;99488.47;5013012;28;20109;-66
2024/01/18 05:42:12;;;;;;;16.00;11.93;;;;;;;-2.35;100.00;99503.19;5012615;28;20386;-65
2024/01/18 05:44:39;;;;;;;17.77;12.33;;;;;;;-2.46;100.00;99494.88;5011642;28;20075;-66
2024/01/18 05:47:05;;;;;;;18.37;11.27;;;;;;;-2.39;100.00;99512.84;5012792;28;20053;-66
2024/01/18 05:49:33;;;;;;;14.03;11.37;;;;;;;-2.41;100.00;99516.38;5013230;28;20057;-65
2024/01/18 05:51:58;;;;;;;16.60;11.57;;;;;;;-2.54;100.00;99503.75;5013208;28;20393;-66
2024/01/18 05:54:23;;;;;;;21.10;12.47;;;;;;;-2.51;100.00;99524.47;5011973;28;20063;-65
2024/01/18 05:56:49;;;;;;;16.50;11.83;;;;;;;-2.54;100.00;99508.97;5012457;28;20036;-66
2024/01/18 05:59:17;;;;;;;19.07;12.40;;;;;;;-2.50;100.00;99530.53;5012498;28;20121;-65
2024/01/18 06:01:45;;;;;;;20.80;11.83;;;;;;;-2.54;100.00;99532.38;5011237;28;20041;-66
2024/01/18 06:04:10;;;;;;;15.60;11.57;;;;;;;-2.57;100.00;99532.50;5011443;28;20064;-66
2024/01/18 06:06:36;;;;;;;15.33;11.57;;;;;;;-2.58;100.00;99529.94;5012689;28;20454;-65
2024/01/18 06:09:01;;;;;;;17.87;11.13;;;;;;;-2.52;100.00;99540.16;5015779;28;20084;-66
2024/01/18 06:11:27;;;;;;;18.23;11.23;;;;;;;-2.54;100.00;99541.94;5011955;28;20116;-66
2024/01/18 06:13:52;;;;;;;16.70;11.83;;;;;;;-2.57;100.00;99545.50;5012094;28;20448;-66
2024/01/18 06:16:17;;;;;;;18.63;11.63;;;;;;;-2.67;100.00;99538.03;5010802;28;20026;-66
2024/01/18 06:18:45;;;;;;;15.10;11.50;;;;;;;-2.60;100.00;99561.22;5011185;28;20022;-66
2024/01/18 06:21:11;;;;;;;13.30;11.40;;;;;;;-2.63;99.89;99571.72;5011243;28;20033;-66
2024/01/18 06:23:37;;;;;;;14.53;11.93;;;;;;;-2.65;100.00;99570.03;5012224;28;20057;-66
2024/01/18 06:26:03;;;;;;;16.27;11.20;;;;;;;-2.75;100.00;99564.28;5011946;28;20046;-66
2024/01/18 06:28:28;;;;;;;17.80;11.20;;;;;;;-2.72;100.00;99577.19;5012463;28;20076;-66
2024/01/18 06:30:54;;;;;;;19.47;11.67;;;;;;;-2.75;100.00;99580.72;5010209;28;20489;-66
2024/01/18 06:33:19;;;;;;;22.83;11.67;;;;;;;-2.77;99.94;99592.06;4994713;28;20021;-66
2024/01/18 06:35:45;;;;;;;15.50;10.63;;;;;;;-2.79;99.97;99586.09;5012080;28;20024;-66
2024/01/18 06:38:11;;;;;;;16.83;10.73;;;;;;;-2.92;99.89;99566.50;5012499;28;20033;-65
2024/01/18 06:40:37;;;;;;;16.43;11.80;;;;;;;-2.85;100.00;99594.06;5011656;28;20018;-66
2024/01/18 06:43:03;;;;;;;17.67;10.77;;;;;;;-2.85;100.00;99594.91;5011289;28;20034;-66
2024/01/18 06:45:28;;;;;;;18.40;11.10;;;;;;;-2.88;100.00;99595.00;5012278;28;20071;-66
2024/01/18 06:47:54;;;;;;;17.30;11.60;;;;;;;-3.00;99.88;99578.00;5011074;28;20021;-66
2024/01/18 06:50:19;;;;;;;15.70;10.87;;;;;;;-2.94;99.83;99597.78;5009850;28;20453;-66
2024/01/18 06:52:44;;;;;;;17.63;11.40;;;;;;;-3.01;100.00;99596.22;5012180;28;20513;-66
2024/01/18 06:55:10;;;;;;;16.43;11.27;;;;;;;-3.02;100.00;99600.59;5011464;28;20041;-66
2024/01/18 06:57:36;;;;;;;19.13;11.50;;;;;;;-2.99;99.94;99612.66;5010184;28;20028;-65
2024/01/18 07:00:02;;;;;;;15.83;11.13;;;;;;;-3.02;99.82;99618.78;5010422;28;20030;-66
2024/01/18 07:02:28;;;;;;;15.60;10.57;;;;;;;-3.03;100.00;99613.63;5011632;28;20017;-66
2024/01/18 07:04:53;;;;;;;16.43;12.13;;;;;;;-3.03;100.00;99616.22;5011427;28;20503;-66
2024/01/18 07:07:20;;;;;;;15.27;11.20;;;;;;;-3.06;99.83;99624.09;5009948;28;20022;-66
2024/01/18 07:09:45;;;;;;;18.63;10.40;;;;;;;-3.10;99.63;99625.09;5010587;28;20053;-66
2024/01/18 07:12:13;;;;;;;16.83;10.83;;;;;;;-3.18;99.63;99614.03;5010007;28;20497;-66
2024/01/18 07:14:39;;;;;;;18.93;10.57;;;;;;;-3.32;99.65;99597.09;5011509;28;20489;-66
2024/01/18 07:17:04;;;;;;;13.90;11.33;;;;;;;-3.15;99.88;99632.16;5008928;28;20034;-66
2024/01/18 07:19:30;;;;;;;14.87;11.57;;;;;;;-3.13;99.38;99645.97;5011024;28;20053;-66
2024/01/18 07:21:55;;;;;;;16.10;11.23;;;;;;;-3.21;99.21;99640.97;5011151;28;20026;-66
2024/01/18 07:24:22;;;;;;;14.70;10.30;;;;;;;-3.25;99.33;99641.97;5010027;28;20046;-65
2024/01/18 07:26:48;;;;;;;16.20;11.60;;;;;;;-3.24;98.77;99648.84;5009650;28;20633;-66
2024/01/18 07:29:13;;;;;;;20.60;11.20;;;;;;;-3.25;99.24;99647.16;5011218;28;20022;-66
2024/01/18 07:31:39;;;;;;;14.70;10.33;;;;;;;-3.34;99.66;99642.19;5011605;28;20117;-66
2024/01/18 07:34:08;;;;;;;17.83;10.57;;;;;;;-3.27;99.31;99662.78;5011151;28;20493;-66
2024/01/18 07:36:33;;;;;;;23.93;11.97;;;;;;;-3.28;99.37;99668.88;5009851;28;20037;-64
2024/01/18 07:38:58;;;;;;;12.77;9.87;;;;;;;-3.33;99.58;99662.94;5000494;28;20388;-64
2024/01/18 07:41:24;;;;;;;19.13;11.20;;;;;;;-3.42;99.25;99653.63;4996577;28;20046;-64
2024/01/18 07:43:49;;;;;;;14.40;11.13;;;;;;;-3.35;99.14;99672.53;5001965;28;20389;-64
2024/01/18 07:46:15;;;;;;;17.20;11.53;;;;;;;-3.37;99.32;99676.06;4999967;28;20018;-64
2024/01/18 07:48:40;;;;;;;26.53;12.77;;;;;;;-3.35;99.41;99675.16;4998193;28;20019;-64
2024/01/18 07:51:05;;;;;;;20.63;11.07;;;;;;;-3.39;99.17;99680.44;5004389;28;20046;-64
2024/01/18 07:53:31;;;;;;;18.50;10.70;;;;;;;-3.37;98.89;99689.06;4999827;28;20034;-64
2024/01/18 07:55:56;;;;;;;15.47;11.10;;;;;;;-3.35;99.43;99695.06;5005394;28;20033;-64
2024/01/18 07:58:24;;;;;;;20.20;10.70;;;;;;;-3.39;99.72;99690.84;5007919;28;20028;-64
2024/01/18 08:00:50;;;;;;;19.10;12.00;;;;;;;-3.34;99.92;99708.03;4993044;28;20027;-64
2024/01/18 08:03:15;;;;;;;17.03;11.17;;;;;;;-3.43;99.66;99693.50;4990673;28;20428;-64
2024/01/18 08:05:41;;;;;;;19.70;11.83;;;;;;;-3.42;99.69;99713.41;4993540;28;20026;-64
2024/01/18 08:08:08;;;;;;;18.10;10.50;;;;;;;-3.34;99.24;99733.19;5006902;28;20113;-64
2024/01/18 08:10:34;;;;;;;15.57;10.97;;;;;;;-3.33;99.52;99727.06;4992990;28;20045;-64
2024/01/18 08:13:02;;;;;;;15.23;10.97;;;;;;;-3.48;99.67;99704.91;4992986;28;20351;-64
2024/01/18 08:15:30;;;;;;;14.80;11.13;;;;;;;-3.28;99.34;99740.81;4991440;28;20027;-64
2024/01/18 08:17:55;;;;;;;19.17;11.90;;;;;;;-3.27;99.76;99735.56;4990672;28;20502;-64
2024/01/18 08:20:21;;;;;;;15.03;11.43;;;;;;;-3.29;99.87;99726.97;4992717;28;20037;-64
2024/01/18 08:22:46;;;;;;;19.93;12.13;;;;;;;-3.32;99.95;99721.00;5000124;28;20050;-64
2024/01/18 08:25:12;;;;;;;19.23;10.67;;;;;;;-3.20;99.98;99739.75;4994758;28;20112;-64
2024/01/18 08:27:43;;;;;;;24.57;10.93;;;;;;;-3.24;99.61;99738.09;4993545;28;20045;-64
2024/01/18 08:30:11;;;;;;;21.80;11.77;;;;;;;-3.29;99.66;99737.38;5010452;28;20482;-64
2024/01/18 08:32:37;;;;;;;16.90;11.77;;;;;;;-3.18;100.00;99759.63;4994600;28;20481;-64
2024/01/18 08:35:03;;;;;;;19.27;11.43;;;;;;;-3.18;100.00;99757.88;4993647;28;20084;-64
2024/01/18 08:37:29;;;;;;;25.27;11.33;;;;;;;-3.24;100.00;99750.25;4991470;28;20035;-64
2024/01/18 08:39:54;;;;;;;16.23;10.87;;;;;;;-3.16;100.00;99769.13;4997153;28;20096;-64
2024/01/18 08:42:19;;;;;;;19.10;10.60;;;;;;;-3.14;100.00;99769.94;5007291;28;20029;-64
2024/01/18 08:44:48;;;;;;;17.87;10.37;;;;;;;-3.17;100.00;99761.38;5007001;28;20045;-64
2024/01/18 08:47:13;;;;;;;12.87;10.63;;;;;;;-3.15;100.00;99763.00;4997109;28;20077;-64
2024/01/18 08:49:38;;;;;;;16.37;10.87;;;;;;;-3.05;100.00;99779.28;4991515;28;20042;-64
2024/01/18 08:52:08;;;;;;;19.50;11.63;;;;;;;-3.01;100.00;99773.94;4991474;28;20104;-64
2024/01/18 08:54:33;;;;;;;19.40;11.10;;;;;;;-3.01;100.00;99775.69;4991605;28;20054;-64
2024/01/18 08:57:03;;;;;;;19.40;10.13;;;;;;;-2.94;100.00;99786.78;4990710;28;20026;-64
2024/01/18 08:59:28;;;;;;;14.45;10.85;;;;;;;-2.85;100.00;99796.97;4990941;28;20057;-64
2024/01/18 09:01:55;;;;;;;20.57;11.50;;;;;;;-2.78;100.00;99803.72;4999522;28;20109;-64
2024/01/18 09:04:20;;;;;;;14.40;11.00;;;;;;;-2.71;100.00;99809.63;4993227;28;20029;-64
2024/01/18 09:06:45;;;;;;;16.03;10.33;;;;;;;-2.65;100.00;99822.47;4991616;28;20022;-65
2024/01/18 09:09:11;;;;;;;21.47;10.93;;;;;;;-2.61;100.00;99818.91;4981120;28;20369;-65
2024/01/18 09:11:37;;;;;;;15.60;10.63;;;;;;;-2.58;100.00;99827.50;5010710;28;20565;-64
2024/01/18 09:14:03;;;;;;;26.47;11.33;;;;;;;-2.55;100.00;99813.53;5011364;28;20104;-64
2024/01/18 09:16:30;;;;;;;14.07;11.27;;;;;;;-2.50;100.00;99824.66;5011004;28;20470;-64
2024/01/18 09:18:56;;;;;;;21.03;10.67;;;;;;;-2.46;100.00;99830.69;5010065;28;20025;-64
2024/01/18 09:21:21;;;;;;;19.10;10.47;;;;;;;-2.44;100.00;99828.84;5013266;28;20032;-65
2024/01/18 09:23:46;;;;;;;17.73;10.87;;;;;;;-2.48;100.00;99819.44;5011645;28;20124;-65
2024/01/18 09:26:12;;;;;;;15.33;11.33;;;;;;;-2.37;100.00;99843.44;5010951;28;20034;-65
2024/01/18 09:28:37;;;;;;;14.77;11.00;;;;;;;-2.31;100.00;99851.09;5011876;28;20049;-65
2024/01/18 09:31:03;;;;;;;14.57;11.07;;;;;;;-2.24;100.00;99856.97;5013023;28;20030;-66
2024/01/18 09:33:28;;;;;;;12.80;10.13;;;;;;;-2.20;100.00;99862.06;5012974;28;20026;-65
2024/01/18 09:35:54;;;;;;;16.83;10.37;;;;;;;-2.14;100.00;99869.72;5012892;28;20028;-65
2024/01/18 09:38:19;;;;;;;14.17;11.17;;;;;;;-2.26;100.00;99836.22;5011217;28;20049;-65
2024/01/18 09:40:46;;;;;;;20.20;10.77;;;;;;;-1.98;100.00;99879.72;5010507;28;20037;-64
2024/01/18 09:43:15;;;;;;;16.20;9.57;;;;;;;-1.93;100.00;99877.84;5012712;28;20041;-64
2024/01/18 09:45:46;;;;;;;16.77;9.93;;;;;;;-1.85;100.00;99875.91;5012225;28;20030;-64
2024/01/18 09:48:12;;;;;;;15.30;8.60;;;;;;;-1.74;100.00;99883.38;5010060;28;20026;-64
2024/01/18 09:50:44;;;;;;;11.43;8.30;;;;;;;-1.63;100.00;99890.00;5012552;28;20032;-64
2024/01/18 09:53:11;;;;;;;16.80;8.20;;;;;;;-1.49;100.00;99896.59;4982008;28;20034;-65
2024/01/18 09:55:36;;;;;;;14.70;7.43;;;;;;;-1.34;100.00;99903.97;5011063;28;20022;-64
2024/01/18 09:58:03;;;;;;;9.27;8.27;;;;;;;-1.19;100.00;99919.16;5010277;28;20036;-64
2024/01/18 10:00:31;;;;;;;11.60;7.33;;;;;;;-1.03;100.00;99909.13;5009808;28;20121;-64
2024/01/18 10:02:57;;;;;;;10.83;6.97;;;;;;;-0.86;100.00;99913.78;4994688;28;20105;-64
2024/01/18 10:05:25;;;;;;;10.00;7.10;;;;;;;-0.64;100.00;99924.41;4993709;28;20019;-64
2024/01/18 10:07:51;;;;;;;12.93;7.20;;;;;;;-0.46;100.00;99910.75;5003966;28;20041;-64
2024/01/18 10:10:18;;;;;;;15.70;7.33;;;;;;;-0.17;100.00;99918.53;5009569;28;20109;-64
2024/01/18 10:12:47;;;;;;;9.27;6.53;;;;;;;0.23;100.00;99947.59;5007457;28;20025;-63
2024/01/18 10:15:32;;;;;;;8.82;6.63;;;;;;;0.51;99.50;99946.63;5010803;28;20064;-62
2024/01/18 10:18:05;;;;;;;10.07;7.00;;;;;;;0.73;97.88;99954.53;5009446;28;20489;-63
2024/01/18 10:20:31;;;;;;;9.60;6.27;;;;;;;0.96;97.11;99947.59;4999385;28;20038;-63
2024/01/18 10:22:58;;;;;;;21.10;7.63;;;;;;;1.12;95.57;99939.09;4992793;28;20034;-63
2024/01/18 10:25:28;;;;;;;11.30;5.73;;;;;;;1.46;94.11;99965.72;4992714;28;20051;-63
2024/01/18 10:27:55;;;;;;;10.30;5.97;;;;;;;1.64;92.17;99967.56;4998181;28;20022;-62
2024/01/18 10:30:23;;;;;;;6.90;5.30;;;;;;;1.72;92.07;99970.75;5009312;28;20029;-63
2024/01/18 10:32:49;;;;;;;14.63;5.90;;;;;;;1.72;91.53;99970.75;5011976;28;20030;-63
2024/01/18 10:35:19;;;;;;;6.53;5.77;;;;;;;1.76;91.74;99982.81;5010309;28;20503;-63
2024/01/18 10:37:45;;;;;;;;;;;;;;;1.96;92.46;99983.75;5010483;28;20030;-63
2024/01/18 10:40:10;;;;;;;6.33;5.70;;;;;;;2.27;90.53;99983.34;5008806;28;19917;-62
2024/01/18 10:42:36;;;;;;;9.77;6.33;;;;;;;2.69;89.43;99987.63;4992783;28;20030;-63
2024/01/18 10:45:05;;;;;;;9.83;6.47;;;;;;;3.14;87.74;99987.28;5010650;28;20434;-63
2024/01/18 10:47:31;;;;;;;12.20;5.37;;;;;;;3.66;85.57;99985.75;5010693;28;20048;-63
2024/01/18 10:49:58;;;;;;;6.07;4.97;;;;;;;4.19;84.32;99982.25;5008075;28;20100;-63
2024/01/18 10:52:26;;;;;;;7.35;5.22;;;;;;;4.61;82.27;99980.97;5000996;28;20030;-63
2024/01/18 10:54:53;;;;;;;8.60;5.68;;;;;;;5.11;79.95;99993.22;4992534;28;20101;-64
2024/01/18 10:57:19;;;;;;;10.90;5.53;;;;;;;5.59;77.08;99988.78;5008681;28;20096;-63
2024/01/18 10:59:44;;;;;;;8.25;4.72;;;;;;;6.15;75.92;99995.31;5011375;28;20065;-65
2024/01/18 11:02:11;;;;;;;6.13;4.38;;;;;;;6.74;73.74;99996.16;5011453;28;20057;-64
2024/01/18 11:04:37;;;;;;;7.20;4.82;;;;;;;7.21;70.78;100002.94;5010168;28;20508;-65
2024/01/18 11:07:05;;;;;;;7.57;4.65;;;;;;;7.61;68.63;100008.34;5003047;28;20036;-65
2024/01/18 11:09:32;;;;;;;7.65;4.88;;;;;;;7.93;67.26;100019.47;5008164;28;20033;-65